Time;durP1;ratioP1;P1;durP2;ratioP2;P2;SDS_P1;SDS_P2;PMS_P1;PMS_P2;Temp;Humidity;BMP_temperature;BMP_pressure;BME280_temperature;BME280_humidity;BME280_pressure;Samples;Min_cycle;Max_cycle;Signal;HPM_P1;HPM_P2
2021/12/03 00:00:21;;;;;;;43.38;19.70;;;;;;;-2.52;100.00;99455.19;5057035;28;20025;-84
2021/12/03 00:02:46;;;;;;;42.67;18.33;;;;;;;-2.50;100.00;99448.25;5055442;28;20048;-85
2021/12/03 00:05:15;;;;;;;39.67;18.63;;;;;;;-2.52;100.00;99447.34;5039060;28;20056;-85
2021/12/03 00:07:42;;;;;;;44.95;19.58;;;;;;;-2.59;100.00;99446.41;5038092;28;20029;-84
2021/12/03 00:10:11;;;;;;;42.83;19.85;;;;;;;-2.59;100.00;99452.50;5037752;28;20027;-85
2021/12/03 00:12:37;;;;;;;39.72;18.33;;;;;;;-2.52;100.00;99447.34;5037896;28;20385;-85
2021/12/03 00:15:05;;;;;;;40.90;18.70;;;;;;;-2.45;100.00;99436.09;5037808;28;20032;-85
2021/12/03 00:17:31;;;;;;;43.40;18.20;;;;;;;-2.52;100.00;99440.38;5043113;28;20116;-85
2021/12/03 00:19:56;;;;;;;42.15;18.58;;;;;;;-2.41;100.00;99430.03;5041417;28;20466;-85
2021/12/03 00:22:22;;;;;;;39.33;18.60;;;;;;;-2.49;100.00;99437.78;5041609;28;20342;-86
2021/12/03 00:24:47;;;;;;;42.67;18.63;;;;;;;-2.45;100.00;99441.31;5041323;28;20063;-86
2021/12/03 00:27:12;;;;;;;40.70;19.15;;;;;;;-2.47;100.00;99441.28;5039935;28;20033;-85
2021/12/03 00:29:38;;;;;;;42.97;19.45;;;;;;;-2.32;100.00;99436.22;5038670;28;20060;-85
2021/12/03 00:32:04;;;;;;;43.28;20.00;;;;;;;-2.30;100.00;99437.09;5038407;28;20033;-85
2021/12/03 00:34:30;;;;;;;42.83;20.85;;;;;;;-2.19;100.00;99445.91;5038352;28;20375;-85
2021/12/03 00:36:58;;;;;;;41.85;19.83;;;;;;;-2.25;100.00;99440.63;5038198;28;20158;-85
2021/12/03 00:39:26;;;;;;;43.00;20.40;;;;;;;-2.18;100.00;99444.16;5037704;28;20097;-86
2021/12/03 00:42:02;;;;;;;42.47;18.88;;;;;;;-2.25;100.00;99443.25;5038223;28;20021;-84
2021/12/03 00:44:30;;;;;;;40.80;19.77;;;;;;;-2.23;100.00;99432.78;5037379;28;20020;-85
2021/12/03 00:46:56;;;;;;;47.92;21.45;;;;;;;-2.13;100.00;99430.25;5037104;28;20025;-85
2021/12/03 00:49:22;;;;;;;37.15;18.52;;;;;;;-2.10;100.00;99433.75;5038228;28;20025;-85
2021/12/03 00:51:47;;;;;;;44.17;20.27;;;;;;;-2.02;100.00;99432.09;5037627;28;20092;-86
2021/12/03 00:54:13;;;;;;;45.58;21.25;;;;;;;-2.08;100.00;99432.03;5037818;28;20038;-85
2021/12/03 00:56:39;;;;;;;50.60;21.20;;;;;;;-2.05;100.00;99432.94;5038656;28;20020;-85
2021/12/03 00:59:05;;;;;;;44.85;20.42;;;;;;;-2.00;100.00;99430.34;5054795;28;20037;-85
2021/12/03 01:01:46;;;;;;;57.92;22.42;;;;;;;-1.92;100.00;99440.88;5036323;28;20075;-85
2021/12/03 01:04:11;;;;;;;48.17;22.00;;;;;;;-1.88;100.00;99433.94;5036959;28;20020;-85
2021/12/03 01:06:37;;;;;;;39.70;20.67;;;;;;;-1.79;100.00;99439.22;5037832;28;20041;-85
2021/12/03 01:09:09;;;;;;;47.38;20.95;;;;;;;-1.84;100.00;99444.44;5037325;28;20060;-85
2021/12/03 01:11:36;;;;;;;42.40;20.67;;;;;;;-1.84;100.00;99446.16;5039099;28;20143;-86
2021/12/03 01:14:03;;;;;;;42.58;21.13;;;;;;;-1.67;100.00;99445.44;5037930;28;20439;-85
2021/12/03 01:16:30;;;;;;;44.22;22.70;;;;;;;-1.82;100.00;99444.44;5039216;28;20079;-85
2021/12/03 01:18:56;;;;;;;49.78;22.02;;;;;;;-1.76;100.00;99444.50;5038561;28;20028;-85
2021/12/03 01:21:22;;;;;;;47.25;24.25;;;;;;;-1.81;100.00;99435.72;5039291;28;20029;-86
2021/12/03 01:23:47;;;;;;;52.30;25.27;;;;;;;-1.88;100.00;99439.19;5037845;28;20035;-85
2021/12/03 01:26:16;;;;;;;49.83;25.23;;;;;;;-1.78;100.00;99437.50;5056544;28;20036;-85
2021/12/03 01:28:45;;;;;;;52.92;25.75;;;;;;;-1.77;100.00;99441.84;5041680;28;20024;-85
2021/12/03 01:31:10;;;;;;;51.22;24.45;;;;;;;-1.76;100.00;99441.88;5042071;28;20033;-85
2021/12/03 01:33:36;;;;;;;57.15;26.38;;;;;;;-1.76;100.00;99444.50;5045270;28;20031;-86
2021/12/03 01:36:02;;;;;;;58.63;27.17;;;;;;;-1.77;100.00;99447.06;5041492;28;20104;-85
2021/12/03 01:38:28;;;;;;;54.55;27.20;;;;;;;-1.77;100.00;99441.84;5041581;28;20112;-85
2021/12/03 01:40:56;;;;;;;62.15;30.10;;;;;;;-1.89;100.00;99442.66;5043062;28;20116;-85
2021/12/03 01:43:23;;;;;;;62.20;29.75;;;;;;;-1.91;100.00;99435.66;5042834;28;20088;-86
2021/12/03 01:46:05;;;;;;;62.28;29.92;;;;;;;-1.85;100.00;99445.28;5043350;28;20017;-85
2021/12/03 01:48:31;;;;;;;67.18;30.27;;;;;;;-1.88;100.00;99447.03;5044199;28;20473;-86
2021/12/03 01:51:00;;;;;;;62.72;30.65;;;;;;;-1.91;100.00;99443.50;5044034;28;20127;-85
2021/12/03 01:53:30;;;;;;;57.05;26.50;;;;;;;-1.82;100.00;99432.22;5044569;28;20457;-86
2021/12/03 01:56:01;;;;;;;64.63;28.90;;;;;;;-1.76;100.00;99441.00;5044517;28;20056;-86
2021/12/03 01:58:29;;;;;;;60.78;28.60;;;;;;;-1.72;100.00;99446.25;5045134;28;20037;-85
2021/12/03 02:01:00;;;;;;;66.63;31.05;;;;;;;-1.83;100.00;99443.56;5044595;28;20021;-85
2021/12/03 02:03:29;;;;;;;56.75;28.15;;;;;;;-1.81;100.00;99446.19;5062465;28;20025;-85
2021/12/03 02:05:56;;;;;;;55.92;29.42;;;;;;;-1.88;100.00;99449.66;5043992;28;20119;-85
2021/12/03 02:08:25;;;;;;;61.03;29.58;;;;;;;-1.77;100.00;99447.97;5061979;28;20032;-86
2021/12/03 02:10:54;;;;;;;59.08;28.15;;;;;;;-1.74;100.00;99450.59;5042937;28;20033;-84
2021/12/03 02:13:19;;;;;;;51.78;26.73;;;;;;;-1.76;100.00;99449.72;5040390;28;20433;-86
2021/12/03 02:15:48;;;;;;;58.33;27.80;;;;;;;-1.86;100.00;99453.13;5040971;28;20021;-85
2021/12/03 02:18:19;;;;;;;57.05;29.38;;;;;;;-1.88;100.00;99454.88;5041598;28;20117;-85
2021/12/03 02:20:53;;;;;;;53.00;25.13;;;;;;;-1.80;100.00;99453.16;5043876;28;20420;-84
2021/12/03 02:23:20;;;;;;;51.40;26.42;;;;;;;-1.87;100.00;99457.50;5060798;28;20032;-87
2021/12/03 02:25:47;;;;;;;51.85;25.85;;;;;;;-1.80;100.00;99458.41;5042807;28;20028;-85
2021/12/03 02:28:16;;;;;;;50.67;25.88;;;;;;;-1.90;100.00;99452.22;5044224;28;20024;-86
2021/12/03 02:30:47;;;;;;;53.60;26.13;;;;;;;-1.91;100.00;99450.50;5042877;28;20055;-85
2021/12/03 02:33:13;;;;;;;54.50;26.42;;;;;;;-1.98;100.00;99460.03;5043582;28;20048;-86
2021/12/03 02:35:59;;;;;;;51.08;27.60;;;;;;;-1.93;100.00;99465.28;5062666;28;20470;-86
2021/12/03 02:38:26;;;;;;;54.67;26.58;;;;;;;-2.03;100.00;99462.59;5042956;28;20064;-86
2021/12/03 02:40:53;;;;;;;51.55;26.67;;;;;;;-2.02;100.00;99463.50;5042944;28;20037;-85
2021/12/03 02:43:19;;;;;;;52.53;27.13;;;;;;;-1.97;100.00;99467.03;5042619;28;20116;-84
2021/12/03 02:45:45;;;;;;;50.08;25.67;;;;;;;-1.87;100.00;99467.06;5043079;28;20021;-85
2021/12/03 02:48:11;;;;;;;58.47;28.50;;;;;;;-1.97;100.00;99471.38;5040163;28;20363;-85
2021/12/03 02:50:40;;;;;;;60.17;28.58;;;;;;;-1.89;100.00;99463.59;5040144;28;20025;-85
2021/12/03 02:53:05;;;;;;;56.13;26.65;;;;;;;-1.88;100.00;99470.59;5040267;28;20023;-86
2021/12/03 02:55:31;;;;;;;60.63;29.75;;;;;;;-1.98;100.00;99465.25;5040773;28;20104;-85
2021/12/03 02:57:59;;;;;;;54.25;26.42;;;;;;;-2.00;100.00;99474.84;5040558;28;20123;-84
2021/12/03 03:00:27;;;;;;;56.22;27.40;;;;;;;-2.02;100.00;99468.72;5041451;28;20025;-86
2021/12/03 03:02:53;;;;;;;53.95;26.60;;;;;;;-1.97;100.00;99472.25;5059266;28;20386;-85
2021/12/03 03:05:19;;;;;;;55.47;26.10;;;;;;;-1.92;100.00;99490.59;5041942;28;20032;-85
2021/12/03 03:07:48;;;;;;;53.55;26.58;;;;;;;-1.96;100.00;99468.75;5041510;28;20025;-85
2021/12/03 03:10:18;;;;;;;59.13;28.77;;;;;;;-2.00;100.00;99479.19;5041863;28;20017;-85
2021/12/03 03:12:43;;;;;;;60.03;28.17;;;;;;;-2.01;100.00;99483.56;5042604;28;20036;-86
2021/12/03 03:15:11;;;;;;;63.05;29.73;;;;;;;-1.82;100.00;99487.19;5046686;28;20146;-85
2021/12/03 03:17:37;;;;;;;56.88;27.83;;;;;;;-1.82;100.00;99475.84;5046951;28;20036;-86
2021/12/03 03:20:04;;;;;;;60.40;29.75;;;;;;;-1.83;100.00;99484.59;5054914;28;20025;-86
2021/12/03 03:22:30;;;;;;;57.60;28.20;;;;;;;-1.84;100.00;99472.34;5074815;28;20005;-85
2021/12/03 03:24:59;;;;;;;65.65;30.27;;;;;;;-1.85;100.00;99475.81;5069146;28;20066;-85
2021/12/03 03:27:27;;;;;;;64.45;29.63;;;;;;;-1.91;100.00;99471.44;5065783;28;20041;-83
2021/12/03 03:29:53;;;;;;;63.45;29.90;;;;;;;-1.91;100.00;99472.28;5047538;28;20448;-85
2021/12/03 03:32:19;;;;;;;57.67;29.35;;;;;;;-1.86;100.00;99466.22;5049013;28;20087;-86
2021/12/03 03:34:45;;;;;;;69.18;31.60;;;;;;;-1.82;100.00;99461.03;5045353;28;20029;-87
2021/12/03 03:37:10;;;;;;;69.05;31.25;;;;;;;-1.81;100.00;99459.28;5043856;28;20029;-86
2021/12/03 03:39:40;;;;;;;67.70;30.88;;;;;;;-1.83;100.00;99453.16;5061687;28;20083;-85
2021/12/03 03:42:06;;;;;;;60.40;30.17;;;;;;;-1.82;100.00;99444.44;5046755;28;20490;-86
2021/12/03 03:44:31;;;;;;;62.08;30.88;;;;;;;-1.80;100.00;99447.94;5044876;28;20025;-85
2021/12/03 03:46:57;;;;;;;61.08;29.33;;;;;;;-1.83;100.00;99448.78;5043252;28;20033;-85
2021/12/03 03:49:24;;;;;;;62.15;29.58;;;;;;;-1.81;100.00;99447.09;5060319;28;20032;-85
2021/12/03 03:51:51;;;;;;;64.70;28.67;;;;;;;-1.74;100.00;99458.47;5060916;28;20036;-84
2021/12/03 03:54:17;;;;;;;61.40;27.35;;;;;;;-1.71;100.00;99463.72;5042863;28;20021;-85
2021/12/03 03:56:44;;;;;;;60.88;26.40;;;;;;;-1.68;100.00;99460.25;5060629;28;20024;-86
2021/12/03 03:59:10;;;;;;;63.63;29.20;;;;;;;-1.70;100.00;99460.22;5046499;28;20013;-85
2021/12/03 04:01:35;;;;;;;64.00;28.13;;;;;;;-1.72;100.00;99469.81;5039861;28;20032;-88
2021/12/03 04:04:01;;;;;;;64.22;28.98;;;;;;;-1.69;100.00;99456.75;5036982;28;20064;-84
2021/12/03 04:06:26;;;;;;;70.88;31.33;;;;;;;-1.61;100.00;99464.66;5054754;28;20021;-84
2021/12/03 04:08:51;;;;;;;75.40;30.02;;;;;;;-1.61;100.00;99464.66;5037144;28;20389;-85
2021/12/03 04:11:20;;;;;;;72.45;30.08;;;;;;;-1.60;100.00;99461.16;5054650;28;20054;-85
2021/12/03 04:13:45;;;;;;;83.18;31.05;;;;;;;-1.52;100.00;99466.44;5036696;28;20021;-84
2021/12/03 04:16:11;;;;;;;91.90;32.50;;;;;;;-1.59;100.00;99456.81;5054556;28;20078;-85
2021/12/03 04:18:36;;;;;;;84.88;31.95;;;;;;;-1.55;100.00;99453.34;5055051;28;20056;-84
2021/12/03 04:21:02;;;;;;;87.22;31.77;;;;;;;-1.62;100.00;99448.91;5054831;28;20025;-84
2021/12/03 04:23:28;;;;;;;90.05;32.22;;;;;;;-1.54;100.00;99448.97;5037021;28;20016;-84
2021/12/03 04:25:54;;;;;;;97.18;33.17;;;;;;;-1.59;100.00;99457.69;5055129;28;20056;-84
2021/12/03 04:28:20;;;;;;;110.75;37.45;;;;;;;-1.55;100.00;99458.59;5037622;28;20025;-84
2021/12/03 04:30:48;;;;;;;112.18;38.38;;;;;;;-1.51;100.00;99462.97;5036963;28;20041;-86
2021/12/03 04:33:14;;;;;;;121.35;40.63;;;;;;;-1.51;100.00;99444.63;5037205;28;20089;-85
2021/12/03 04:35:40;;;;;;;121.75;40.78;;;;;;;-1.51;100.00;99436.78;5055719;28;20041;-85
2021/12/03 04:38:06;;;;;;;110.80;38.20;;;;;;;-1.44;100.00;99432.44;5037166;28;20028;-84
2021/12/03 04:40:33;;;;;;;131.90;43.20;;;;;;;-1.46;100.00;99434.19;5037644;28;20052;-85
2021/12/03 04:42:59;;;;;;;120.75;42.00;;;;;;;-1.47;100.00;99435.91;5038517;28;20017;-84
2021/12/03 04:45:26;;;;;;;140.65;45.50;;;;;;;-1.49;100.00;99426.31;5056544;28;20172;-84
2021/12/03 04:47:52;;;;;;;156.30;48.92;;;;;;;-1.53;100.00;99425.44;5038738;28;20115;-83
2021/12/03 04:50:20;;;;;;;156.88;48.65;;;;;;;-1.47;100.00;99428.06;5055981;28;20025;-84
2021/12/03 04:52:46;;;;;;;157.23;48.90;;;;;;;-1.47;100.00;99429.84;5038500;28;20032;-83
2021/12/03 04:55:12;;;;;;;164.80;51.20;;;;;;;-1.48;100.00;99421.09;5040338;28;20017;-84
2021/12/03 04:57:38;;;;;;;165.68;50.67;;;;;;;-1.45;100.00;99415.00;5040954;28;20110;-83
2021/12/03 05:00:07;;;;;;;165.32;48.45;;;;;;;-1.46;100.00;99415.84;5062812;28;20082;-84
2021/12/03 05:02:32;;;;;;;179.18;54.58;;;;;;;-1.45;100.00;99420.25;5042775;28;20017;-84
2021/12/03 05:05:02;;;;;;;181.70;54.03;;;;;;;-1.38;100.00;99418.50;5039749;28;20116;-84
2021/12/03 05:07:31;;;;;;;190.32;56.83;;;;;;;-1.46;100.00;99421.97;5057771;28;20486;-84
2021/12/03 05:09:57;;;;;;;170.23;50.38;;;;;;;-1.30;100.00;99411.56;5039744;28;20025;-84
2021/12/03 05:12:23;;;;;;;187.35;51.50;;;;;;;-1.40;100.00;99415.91;5056063;28;20055;-83
2021/12/03 05:14:48;;;;;;;183.77;52.55;;;;;;;-1.36;100.00;99412.41;5056631;28;20057;-84
2021/12/03 05:17:14;;;;;;;184.60;54.60;;;;;;;-1.39;100.00;99411.53;5039100;28;20025;-84
2021/12/03 05:19:39;;;;;;;180.85;50.03;;;;;;;-1.31;100.00;99409.81;5039814;28;20024;-84
2021/12/03 05:22:05;;;;;;;194.38;52.03;;;;;;;-1.33;100.00;99419.41;5039430;28;20088;-83
2021/12/03 05:24:30;;;;;;;159.73;46.53;;;;;;;-1.24;100.00;99415.97;5039165;28;20033;-86
2021/12/03 05:26:55;;;;;;;171.73;49.88;;;;;;;-1.29;100.00;99417.69;5038295;28;20425;-84
2021/12/03 05:29:21;;;;;;;163.07;47.10;;;;;;;-1.24;100.00;99422.06;5039720;28;20021;-84
2021/12/03 05:31:46;;;;;;;160.27;44.55;;;;;;;-1.24;100.00;99422.06;5037565;28;20025;-86
2021/12/03 05:34:13;;;;;;;181.25;49.15;;;;;;;-1.29;100.00;99426.41;5055985;28;20029;-84
2021/12/03 05:36:39;;;;;;;187.80;48.45;;;;;;;-1.21;100.00;99436.06;5038580;28;20027;-83
2021/12/03 05:39:05;;;;;;;204.20;53.63;;;;;;;-1.27;100.00;99436.91;5056109;28;20100;-84
2021/12/03 05:41:32;;;;;;;205.68;53.40;;;;;;;-1.21;100.00;99450.03;5038269;28;20114;-83
2021/12/03 05:43:57;;;;;;;216.13;55.40;;;;;;;-1.21;100.00;99441.31;5038266;28;20033;-85
2021/12/03 05:46:23;;;;;;;201.05;53.83;;;;;;;-1.16;100.00;99445.69;5056098;28;20029;-84
2021/12/03 05:48:48;;;;;;;197.98;52.78;;;;;;;-1.16;100.00;99450.06;5037966;28;20021;-84
2021/12/03 05:51:13;;;;;;;189.68;50.13;;;;;;;-1.13;100.00;99450.94;5037812;28;20029;-83
2021/12/03 05:53:38;;;;;;;176.35;48.67;;;;;;;-0.99;100.00;99452.75;5038219;28;20436;-83
2021/12/03 05:56:04;;;;;;;198.35;51.58;;;;;;;-1.16;100.00;99452.69;5038250;28;20028;-85
2021/12/03 05:58:29;;;;;;;188.82;49.88;;;;;;;-1.13;100.00;99452.69;5039163;28;20269;-83
2021/12/03 06:00:55;;;;;;;187.88;49.58;;;;;;;-1.15;100.00;99455.31;5056268;28;20021;-82
2021/12/03 06:03:20;;;;;;;182.70;50.60;;;;;;;-1.13;100.00;99460.53;5038951;28;20025;-82
2021/12/03 06:05:46;;;;;;;182.88;49.13;;;;;;;-1.11;100.00;99445.72;5041625;28;20025;-84
2021/12/03 06:08:11;;;;;;;175.38;48.80;;;;;;;-1.10;100.00;99436.97;5039905;28;20041;-83
2021/12/03 06:10:37;;;;;;;160.65;45.88;;;;;;;-0.96;100.00;99438.78;5057768;28;20370;-83
2021/12/03 06:13:03;;;;;;;158.98;47.80;;;;;;;-1.00;100.00;99431.78;5057943;28;20078;-83
2021/12/03 06:15:29;;;;;;;156.52;45.75;;;;;;;-1.04;100.00;99430.88;5042603;28;20075;-84
2021/12/03 06:17:55;;;;;;;157.88;46.53;;;;;;;-1.06;100.00;99430.91;5042938;28;20021;-82
2021/12/03 06:20:21;;;;;;;149.13;44.78;;;;;;;-1.09;100.00;99430.88;5060946;28;20029;-83
2021/12/03 06:22:47;;;;;;;153.25;44.17;;;;;;;-1.00;100.00;99432.63;5044589;28;20013;-83
2021/12/03 06:25:14;;;;;;;143.75;43.42;;;;;;;-1.01;100.00;99430.91;5061356;28;20528;-83
2021/12/03 06:27:40;;;;;;;142.00;42.17;;;;;;;-1.03;100.00;99430.88;5040884;28;20024;-82
2021/12/03 06:30:09;;;;;;;151.57;47.40;;;;;;;-1.05;100.00;99429.13;5060937;28;20104;-83
2021/12/03 06:32:34;;;;;;;146.30;45.83;;;;;;;-1.07;100.00;99431.75;5044723;28;20020;-84
2021/12/03 06:35:00;;;;;;;154.32;44.60;;;;;;;-1.02;100.00;99427.41;5044495;28;20565;-83
2021/12/03 06:37:25;;;;;;;154.07;47.00;;;;;;;-1.02;100.00;99427.41;5061892;28;20025;-84
2021/12/03 06:39:51;;;;;;;146.75;44.05;;;;;;;-0.95;100.00;99432.66;5043808;28;20094;-84
2021/12/03 06:42:17;;;;;;;140.10;42.60;;;;;;;-0.95;100.00;99432.66;5044231;28;20020;-83
2021/12/03 06:44:42;;;;;;;133.27;44.15;;;;;;;-0.95;100.00;99428.28;5043251;28;20055;-86
2021/12/03 06:47:07;;;;;;;124.00;40.05;;;;;;;-0.87;100.00;99436.19;5061117;28;20025;-84
2021/12/03 06:49:34;;;;;;;124.72;39.95;;;;;;;-0.85;100.00;99431.81;5042734;28;20029;-84
2021/12/03 06:52:04;;;;;;;119.78;40.35;;;;;;;-0.94;100.00;99431.78;5061401;28;20028;-84
2021/12/03 06:54:32;;;;;;;119.43;39.35;;;;;;;-0.95;100.00;99437.91;5043019;28;20051;-84
2021/12/03 06:57:04;;;;;;;109.35;36.15;;;;;;;-0.88;100.00;99439.69;5061277;28;20025;-83
2021/12/03 06:59:31;;;;;;;102.05;36.45;;;;;;;-0.85;100.00;99434.44;5062622;28;20021;-83
2021/12/03 07:01:56;;;;;;;109.95;36.50;;;;;;;-0.91;100.00;99443.19;5042146;28;20032;-84
2021/12/03 07:04:22;;;;;;;105.75;37.72;;;;;;;-0.94;100.00;99440.53;5045645;28;20020;-85
2021/12/03 07:06:47;;;;;;;106.97;35.95;;;;;;;-0.92;100.00;99432.66;5050027;28;20481;-84
2021/12/03 07:09:13;;;;;;;102.18;33.70;;;;;;;-0.91;100.00;99440.56;5067806;28;20079;-85
2021/12/03 07:11:39;;;;;;;104.25;34.65;;;;;;;-0.91;100.00;99444.91;5049179;28;20021;-85
2021/12/03 07:14:05;;;;;;;97.75;32.42;;;;;;;-0.92;100.00;99438.78;5066618;28;20041;-84
2021/12/03 07:16:31;;;;;;;91.68;31.40;;;;;;;-0.90;100.00;99442.28;5047642;28;20029;-84
2021/12/03 07:18:57;;;;;;;92.65;31.35;;;;;;;-0.89;100.00;99432.69;5062109;28;20033;-83
2021/12/03 07:21:23;;;;;;;86.32;31.80;;;;;;;-0.87;100.00;99425.69;5062203;28;20100;-84
2021/12/03 07:23:50;;;;;;;79.72;29.70;;;;;;;-0.85;100.00;99436.22;5063028;28;20037;-84
2021/12/03 07:26:16;;;;;;;94.90;32.88;;;;;;;-0.87;100.00;99432.69;5060100;28;20074;-82
2021/12/03 07:28:42;;;;;;;90.78;32.17;;;;;;;-0.83;100.00;99439.69;5060987;28;20063;-85
2021/12/03 07:31:07;;;;;;;100.32;33.28;;;;;;;-0.86;100.00;99447.53;5042426;28;20028;-84
2021/12/03 07:33:33;;;;;;;94.18;34.00;;;;;;;-0.83;100.00;99437.09;5044072;28;20028;-84
2021/12/03 07:35:58;;;;;;;95.25;33.08;;;;;;;-0.77;100.00;99441.47;5043205;28;20032;-84
2021/12/03 07:38:23;;;;;;;90.55;31.42;;;;;;;-0.80;100.00;99432.69;5041981;28;20052;-85
2021/12/03 07:40:49;;;;;;;101.03;34.50;;;;;;;-0.81;100.00;99445.81;5039844;28;20474;-84
2021/12/03 07:43:17;;;;;;;82.55;31.85;;;;;;;-0.76;100.00;99444.09;5041529;28;20462;-84
2021/12/03 07:45:47;;;;;;;82.90;31.27;;;;;;;-0.77;100.00;99447.56;5042913;28;20025;-84
2021/12/03 07:48:12;;;;;;;95.90;33.33;;;;;;;-0.78;100.00;99443.22;5041714;28;20033;-84
2021/12/03 07:50:39;;;;;;;90.68;31.38;;;;;;;-0.79;100.00;99434.47;5059485;28;20021;-84
2021/12/03 07:53:06;;;;;;;98.10;31.88;;;;;;;-0.70;100.00;99443.25;5042270;28;20025;-83
2021/12/03 07:55:32;;;;;;;87.95;31.75;;;;;;;-0.73;100.00;99441.47;5042159;28;20021;-84
2021/12/03 07:57:57;;;;;;;95.47;31.75;;;;;;;-0.70;100.00;99444.13;5060105;28;20382;-85
2021/12/03 08:00:23;;;;;;;94.50;31.58;;;;;;;-0.63;100.00;99445.00;5043223;28;20035;-84
2021/12/03 08:02:49;;;;;;;93.05;31.70;;;;;;;-0.67;100.00;99438.00;5043051;28;20017;-84
2021/12/03 08:05:14;;;;;;;78.63;28.30;;;;;;;-0.64;100.00;99438.00;5042747;28;20092;-85
2021/12/03 08:07:45;;;;;;;77.88;28.02;;;;;;;-0.61;100.00;99443.25;5042272;28;20103;-84
2021/12/03 08:10:10;;;;;;;71.55;27.67;;;;;;;-0.59;100.00;99441.50;5042458;28;20051;-84
2021/12/03 08:12:39;;;;;;;70.72;27.58;;;;;;;-0.51;100.00;99443.25;5042475;28;20024;-85
2021/12/03 08:15:05;;;;;;;78.32;27.98;;;;;;;-0.54;100.00;99430.16;5040927;28;20021;-85
2021/12/03 08:17:30;;;;;;;77.13;27.67;;;;;;;-0.52;100.00;99431.03;5038579;28;20028;-84
2021/12/03 08:19:56;;;;;;;71.70;26.90;;;;;;;-0.41;100.00;99438.94;5039553;28;20123;-84
2021/12/03 08:22:21;;;;;;;66.07;27.23;;;;;;;-0.43;100.00;99445.88;5041923;28;20029;-85
2021/12/03 08:24:46;;;;;;;69.40;25.05;;;;;;;-0.39;100.00;99445.94;5042953;28;20028;-84
2021/12/03 08:27:12;;;;;;;69.50;26.67;;;;;;;-0.39;100.00;99438.06;5043617;28;20112;-84
2021/12/03 08:29:37;;;;;;;72.80;27.38;;;;;;;-0.37;100.00;99441.53;5042826;28;20028;-85
2021/12/03 08:32:03;;;;;;;69.82;26.23;;;;;;;-0.38;100.00;99436.28;5042676;28;20068;-85
2021/12/03 08:34:28;;;;;;;71.47;27.20;;;;;;;-0.23;100.00;99444.16;5042855;28;20024;-85
2021/12/03 08:36:54;;;;;;;72.85;26.38;;;;;;;-0.22;100.00;99439.81;5042912;28;20082;-83
2021/12/03 08:39:19;;;;;;;69.18;26.95;;;;;;;-0.18;100.00;99430.19;5043332;28;20021;-85
2021/12/03 08:41:45;;;;;;;72.20;26.85;;;;;;;-0.18;100.00;99435.44;5041893;28;20021;-85
2021/12/03 08:44:10;;;;;;;65.47;26.90;;;;;;;-0.20;100.00;99435.41;5060246;28;20036;-83
2021/12/03 08:46:37;;;;;;;60.15;25.88;;;;;;;-0.18;100.00;99436.28;5060809;28;20490;-85
2021/12/03 08:49:09;;;;;;;68.45;26.08;;;;;;;-0.15;100.00;99441.56;5045329;28;20032;-84
2021/12/03 08:56:51;;;;;;;62.92;25.25;;;;;;;-0.12;100.00;99432.81;5057522;28;20040;-83
2021/12/03 08:59:17;;;;;;;66.15;26.50;;;;;;;-0.10;100.00;99422.31;5058578;28;20025;-84
2021/12/03 09:01:44;;;;;;;69.35;26.90;;;;;;;-0.13;100.00;99417.94;5040377;28;20028;-83
2021/12/03 09:04:09;;;;;;;61.45;26.42;;;;;;;-0.07;100.00;99417.94;5040958;28;20017;-85
2021/12/03 09:06:35;;;;;;;63.63;26.33;;;;;;;-0.01;100.00;99403.94;5059678;28;20032;-84
2021/12/03 09:09:00;;;;;;;59.15;26.45;;;;;;;-0.02;100.00;99412.66;5042602;28;20459;-85
2021/12/03 09:11:27;;;;;;;53.13;24.85;;;;;;;0.04;100.00;99415.31;5048836;28;20097;-85
2021/12/03 09:13:53;;;;;;;70.75;27.88;;;;;;;0.15;100.00;99412.69;5048717;28;20043;-85
2021/12/03 09:16:19;;;;;;;64.20;25.50;;;;;;;0.08;100.00;99406.53;5065511;28;20029;-84
2021/12/03 09:18:46;;;;;;;62.63;26.67;;;;;;;0.10;100.00;99406.56;5047027;28;20025;-85
2021/12/03 09:21:29;;;;;;;58.67;25.00;;;;;;;0.14;100.00;99416.16;5047181;28;20032;-85
2021/12/03 09:24:07;;;;;;;68.68;26.65;;;;;;;0.15;100.00;99406.53;5065157;28;20029;-84
2021/12/03 09:26:37;;;;;;;61.25;26.70;;;;;;;0.18;100.00;99412.66;5045982;28;20035;-85
2021/12/03 09:29:06;;;;;;;63.70;24.67;;;;;;;0.21;100.00;99407.41;5038135;28;20029;-84
2021/12/03 09:31:34;;;;;;;61.30;25.83;;;;;;;0.19;100.00;99418.78;5039034;28;20035;-84
2021/12/03 09:33:59;;;;;;;63.60;26.10;;;;;;;0.19;100.00;99411.78;5040820;28;20020;-85
2021/12/03 09:36:25;;;;;;;67.90;26.15;;;;;;;0.22;100.00;99413.53;5058825;28;20021;-85
2021/12/03 09:38:50;;;;;;;71.43;28.13;;;;;;;0.23;100.00;99410.03;5041718;28;20032;-85
2021/12/03 09:41:19;;;;;;;70.50;27.50;;;;;;;0.29;100.00;99414.38;5041127;28;20029;-85
2021/12/03 09:43:48;;;;;;;63.92;27.17;;;;;;;0.30;100.00;99410.91;5059952;28;20078;-84
2021/12/03 09:46:19;;;;;;;67.22;26.63;;;;;;;0.31;100.00;99403.00;5059888;28;20041;-84
2021/12/03 09:49:06;;;;;;;68.03;26.92;;;;;;;0.32;100.00;99399.50;5043897;28;20036;-83
2021/12/03 09:51:50;;;;;;;65.20;29.40;;;;;;;0.35;100.00;99403.00;5045713;28;20033;-85
2021/12/03 09:54:32;;;;;;;69.28;28.95;;;;;;;0.37;100.00;99398.59;5046158;28;20025;-84
2021/12/03 09:57:07;;;;;;;72.82;28.70;;;;;;;0.42;100.00;99395.09;5045808;28;20401;-84
2021/12/03 10:00:18;;;;;;;73.57;27.98;;;;;;;0.42;100.00;99387.22;5046250;28;20017;-84
2021/12/03 10:02:30;;;;;;;63.97;28.05;;;;;;;0.49;100.00;99390.69;5058300;28;20464;-84
2021/12/03 10:15:37;;;;;;;64.20;25.23;;;;;;;0.62;100.00;99354.75;5062829;28;20036;-84
2021/12/03 10:18:09;;;;;;;65.35;27.48;;;;;;;0.69;100.00;99344.22;5063585;28;20436;-85
2021/12/03 10:20:50;;;;;;;65.03;24.85;;;;;;;0.71;100.00;99345.97;5045339;28;20021;-85
2021/12/03 10:24:11;;;;;;;62.00;26.17;;;;;;;0.72;100.00;99345.06;5045914;28;20025;-85
2021/12/03 10:32:26;;;;;;;55.15;25.02;;;;;;;0.86;100.00;99357.25;5030343;28;20037;-85
2021/12/03 10:38:27;;;;;;;52.20;21.92;;;;;;;0.95;100.00;99330.94;5001813;28;20026;-85
2021/12/03 10:54:09;;;;;;;42.90;18.80;;;;;;;1.07;100.00;99315.97;5063794;28;20450;-84
2021/12/03 10:57:00;;;;;;;40.17;18.50;;;;;;;1.06;100.00;99317.72;5044653;28;20036;-85
2021/12/03 11:17:08;;;;;;;26.63;12.35;;;;;;;1.41;100.00;99284.16;5021415;28;19909;-85
2021/12/03 11:44:46;;;;;;;23.40;9.32;;;;;;;1.54;100.00;99241.94;5066883;28;20039;-86
2021/12/03 11:59:08;;;;;;;16.40;6.28;;;;;;;1.74;99.89;99204.00;5059913;28;20463;-84
2021/12/03 12:19:31;;;;;;;25.42;6.90;;;;;;;2.00;98.47;99200.22;5057521;28;20025;-88
2021/12/03 12:27:41;;;;;;;14.02;6.28;;;;;;;2.00;96.07;99184.41;5057532;28;20032;-88
2021/12/03 13:36:11;;;;;;;21.20;6.82;;;;;;;1.55;100.00;99088.41;5067457;28;20032;-86
2021/12/03 14:04:30;;;;;;;12.15;3.97;;;;;;;1.37;100.00;99048.31;5060858;28;20528;-87
2021/12/03 14:07:18;;;;;;;12.15;4.70;;;;;;;1.43;100.00;99050.88;5061098;28;20029;-86
2021/12/03 14:12:51;;;;;;;13.10;4.03;;;;;;;1.48;100.00;99056.06;5062674;28;20048;-85
2021/12/03 14:49:42;;;;;;;8.77;3.50;;;;;;;1.72;93.48;99032.09;5064684;28;20021;-86
2021/12/03 14:52:14;;;;;;;11.20;3.75;;;;;;;1.73;93.73;99033.81;5063546;28;20524;-86
2021/12/03 14:57:18;;;;;;;11.00;3.88;;;;;;;1.67;94.30;99019.88;5064449;28;20060;-86
2021/12/03 15:00:10;;;;;;;9.48;3.70;;;;;;;1.65;94.39;99021.63;5063100;28;20098;-86
2021/12/03 15:08:22;;;;;;;10.95;4.00;;;;;;;1.58;95.64;99012.09;5063515;28;20025;-86
2021/12/03 15:14:17;;;;;;;13.55;3.50;;;;;;;1.61;95.41;99009.41;5058046;28;20028;-80
2021/12/03 15:37:57;;;;;;;8.15;3.50;;;;;;;1.45;97.09;98993.84;5067859;28;20041;-85
2021/12/03 15:40:43;;;;;;;9.57;3.50;;;;;;;1.52;96.70;98985.88;5052166;28;20071;-85
2021/12/03 16:10:56;;;;;;;8.40;3.38;;;;;;;1.40;100.00;98964.09;5068241;28;20043;-85
2021/12/03 16:19:17;;;;;;;8.52;3.70;;;;;;;1.41;100.00;98962.34;5063637;28;20028;-87
2021/12/03 16:31:04;;;;;;;9.00;3.70;;;;;;;1.42;100.00;98956.16;5034110;28;20394;-85
2021/12/03 16:48:06;;;;;;;9.05;4.50;;;;;;;1.09;100.00;98931.19;5055170;28;20436;-87